Time;durP1;ratioP1;P1;durP2;ratioP2;P2;SDS_P1;SDS_P2;PMS_P1;PMS_P2;Temp;Humidity;BMP_temperature;BMP_pressure;BME280_temperature;BME280_humidity;BME280_pressure;Samples;Min_cycle;Max_cycle;Signal;HPM_P1;HPM_P2
2022/04/14 00:01:31;;;;;;;13.55;8.35;;;;;;;;;;6264553;28;20537;-80
2022/04/14 00:04:36;;;;;;;14.98;8.63;;;;;;;;;;6264747;28;20052;-78
2022/04/14 00:07:39;;;;;;;13.80;7.78;;;;;;;;;;6264593;28;20122;-79
2022/04/14 00:10:40;;;;;;;12.32;9.00;;;;;;;;;;6263542;28;20115;-78
2022/04/14 00:13:42;;;;;;;14.20;8.75;;;;;;;;;;6264490;28;20051;-77
2022/04/14 00:16:44;;;;;;;12.63;8.23;;;;;;;;;;6264771;28;20033;-78
2022/04/14 00:19:45;;;;;;;13.18;8.52;;;;;;;;;;6264024;28;20176;-80
2022/04/14 00:22:47;;;;;;;14.07;8.57;;;;;;;;;;6262990;28;20045;-77
2022/04/14 00:25:49;;;;;;;11.90;8.20;;;;;;;;;;6273999;28;20515;-79
2022/04/14 00:28:50;;;;;;;14.85;8.40;;;;;;;;;;6295345;28;20055;-77
2022/04/14 00:31:52;;;;;;;15.43;8.20;;;;;;;;;;6273616;28;20192;-79
2022/04/14 00:34:53;;;;;;;12.40;7.93;;;;;;;;;;6269230;28;20080;-78
2022/04/14 00:37:55;;;;;;;11.52;7.75;;;;;;;;;;6284994;28;20055;-80
2022/04/14 00:40:56;;;;;;;13.02;8.32;;;;;;;;;;6269056;28;20136;-80
2022/04/14 00:43:58;;;;;;;15.40;9.00;;;;;;;;;;6269658;28;20064;-80
2022/04/14 00:47:00;;;;;;;13.55;8.57;;;;;;;;;;6281569;28;20053;-80
2022/04/14 00:50:03;;;;;;;12.40;8.73;;;;;;;;;;6294164;28;20084;-77
2022/04/14 00:53:04;;;;;;;14.02;8.85;;;;;;;;;;6295096;28;20128;-79
2022/04/14 00:56:06;;;;;;;13.13;8.60;;;;;;;;;;6277666;28;20113;-78
2022/04/14 00:59:08;;;;;;;14.32;9.05;;;;;;;;;;6296745;28;20056;-78
2022/04/14 01:02:10;;;;;;;17.08;9.75;;;;;;;;;;6291010;28;20144;-78
2022/04/14 01:05:13;;;;;;;18.00;12.00;;;;;;;;;;6294096;28;20105;-78
2022/04/14 01:08:18;;;;;;;14.90;9.07;;;;;;;;;;6268997;28;20118;-78
2022/04/14 01:11:20;;;;;;;17.58;10.18;;;;;;;;;;6267153;28;20079;-77
2022/04/14 01:14:25;;;;;;;16.60;10.57;;;;;;;;;;6288559;28;20072;-77
2022/04/14 01:17:27;;;;;;;15.75;10.60;;;;;;;;;;6268903;28;20109;-79
2022/04/14 01:20:29;;;;;;;17.08;10.80;;;;;;;;;;6268085;28;20064;-80
2022/04/14 01:23:44;;;;;;;21.60;12.95;;;;;;;;;;6268229;28;20159;-79
2022/04/14 01:26:45;;;;;;;26.70;14.45;;;;;;;;;;6268184;28;20183;-80
2022/04/14 01:29:47;;;;;;;20.48;12.57;;;;;;;;;;6267595;28;20183;-78
2022/04/14 01:32:49;;;;;;;19.13;12.77;;;;;;;;;;6293665;28;20126;-80
2022/04/14 01:35:51;;;;;;;19.38;12.32;;;;;;;;;;6294110;28;20172;-78
2022/04/14 01:38:52;;;;;;;21.75;13.40;;;;;;;;;;6282834;28;20167;-80
2022/04/14 01:41:54;;;;;;;23.90;13.60;;;;;;;;;;6284975;28;20187;-81
2022/04/14 01:44:56;;;;;;;19.05;12.43;;;;;;;;;;6268410;28;20096;-80
2022/04/14 01:47:57;;;;;;;24.27;13.50;;;;;;;;;;6268858;28;20148;-77
2022/04/14 01:50:59;;;;;;;21.42;13.13;;;;;;;;;;6266971;28;20041;-81
2022/04/14 01:54:01;;;;;;;20.23;12.07;;;;;;;;;;6267872;28;20118;-78
2022/04/14 01:57:03;;;;;;;22.65;13.02;;;;;;;;;;6292053;28;20121;-79
2022/04/14 02:00:07;;;;;;;23.45;13.73;;;;;;;;;;6290874;28;20075;-79
2022/04/14 02:03:09;;;;;;;21.40;13.00;;;;;;;;;;6292151;28;20059;-78
2022/04/14 02:06:10;;;;;;;20.52;12.15;;;;;;;;;;6290051;28;20116;-80
2022/04/14 02:09:12;;;;;;;23.60;12.75;;;;;;;;;;6280197;28;20096;-79
2022/04/14 02:12:13;;;;;;;20.08;11.95;;;;;;;;;;6272493;28;20082;-77
2022/04/14 02:15:15;;;;;;;19.38;11.95;;;;;;;;;;6283279;28;20073;-78
2022/04/14 02:18:17;;;;;;;23.95;13.38;;;;;;;;;;6266580;28;20061;-80
2022/04/14 02:21:19;;;;;;;22.55;12.60;;;;;;;;;;6262781;28;20130;-80
2022/04/14 02:24:20;;;;;;;19.33;11.82;;;;;;;;;;6267484;28;20056;-80
2022/04/14 02:27:22;;;;;;;22.70;12.88;;;;;;;;;;6267466;28;20061;-78
2022/04/14 02:30:24;;;;;;;20.30;13.30;;;;;;;;;;6281549;28;20154;-81
2022/04/14 02:33:25;;;;;;;20.05;13.05;;;;;;;;;;6267080;28;20574;-77
2022/04/14 02:36:27;;;;;;;21.50;12.45;;;;;;;;;;6268407;28;20041;-81
2022/04/14 02:39:29;;;;;;;19.92;12.20;;;;;;;;;;6267736;28;20033;-81
2022/04/14 02:42:31;;;;;;;21.40;12.30;;;;;;;;;;6265831;28;20045;-78
2022/04/14 02:45:32;;;;;;;19.73;12.70;;;;;;;;;;6268389;28;20567;-80
2022/04/14 02:48:34;;;;;;;21.33;12.55;;;;;;;;;;6292779;28;20123;-80
2022/04/14 02:51:36;;;;;;;18.05;11.38;;;;;;;;;;6295515;28;20090;-80
2022/04/14 02:54:37;;;;;;;24.88;12.45;;;;;;;;;;6279473;28;20524;-78
2022/04/14 02:57:40;;;;;;;21.42;13.55;;;;;;;;;;6264515;28;20052;-80
2022/04/14 03:00:41;;;;;;;27.88;14.20;;;;;;;;;;6262589;28;20138;-77
2022/04/14 03:03:43;;;;;;;23.10;13.15;;;;;;;;;;6264590;28;20075;-79
2022/04/14 03:06:45;;;;;;;21.55;12.73;;;;;;;;;;6287278;28;20174;-80
2022/04/14 03:09:48;;;;;;;23.55;13.13;;;;;;;;;;6274168;28;20105;-79
2022/04/14 03:12:51;;;;;;;;;;;;;;;;;;6264305;28;20064;-79
2022/04/14 03:15:52;;;;;;;23.10;13.35;;;;;;;;;;6263182;28;19928;-78
2022/04/14 03:18:54;;;;;;;24.27;12.95;;;;;;;;;;6264297;28;20105;-79
2022/04/14 03:21:58;;;;;;;25.05;12.95;;;;;;;;;;6264599;28;20096;-79
2022/04/14 03:25:01;;;;;;;23.05;12.77;;;;;;;;;;6261128;28;20128;-79
2022/04/14 03:28:03;;;;;;;26.38;13.00;;;;;;;;;;6265248;28;20189;-81
2022/04/14 03:31:05;;;;;;;45.38;22.15;;;;;;;;;;6279661;28;20064;-78
2022/04/14 03:34:07;;;;;;;50.20;24.33;;;;;;;;;;6285530;28;20134;-78
2022/04/14 03:37:08;;;;;;;40.90;21.80;;;;;;;;;;6286195;28;20181;-78
2022/04/14 03:40:11;;;;;;;35.47;18.30;;;;;;;;;;6277761;28;20124;-78
2022/04/14 03:43:13;;;;;;;35.17;19.38;;;;;;;;;;6285346;28;20044;-78
2022/04/14 03:46:14;;;;;;;36.15;21.88;;;;;;;;;;6279215;28;20087;-78
2022/04/14 03:49:16;;;;;;;37.22;21.23;;;;;;;;;;6289323;28;20036;-81
2022/04/14 03:52:18;;;;;;;33.10;18.92;;;;;;;;;;6287185;28;20115;-79
2022/04/14 03:55:19;;;;;;;29.20;17.17;;;;;;;;;;6270820;28;20066;-79
2022/04/14 03:58:21;;;;;;;34.38;18.40;;;;;;;;;;6279496;28;20049;-78
2022/04/14 04:01:23;;;;;;;28.08;16.52;;;;;;;;;;6270136;28;20439;-81
2022/04/14 04:04:24;;;;;;;30.17;18.02;;;;;;;;;;6273193;28;20044;-79
2022/04/14 04:07:26;;;;;;;32.08;17.80;;;;;;;;;;6291691;28;20041;-77
2022/04/14 04:10:28;;;;;;;29.52;16.70;;;;;;;;;;6280364;28;20171;-77
2022/04/14 04:13:29;;;;;;;30.33;15.95;;;;;;;;;;6267594;28;20073;-79
2022/04/14 04:16:31;;;;;;;26.70;14.90;;;;;;;;;;6267506;28;20037;-77
2022/04/14 04:19:33;;;;;;;29.48;15.57;;;;;;;;;;6267219;28;20065;-78
2022/04/14 04:22:34;;;;;;;30.35;16.65;;;;;;;;;;6267537;28;20226;-78
2022/04/14 04:25:36;;;;;;;30.10;16.25;;;;;;;;;;6267060;28;20411;-78
2022/04/14 04:28:38;;;;;;;26.90;14.90;;;;;;;;;;6267336;28;20057;-79
2022/04/14 04:31:45;;;;;;;28.38;15.80;;;;;;;;;;6266654;28;20393;-78
2022/04/14 04:34:47;;;;;;;25.85;14.00;;;;;;;;;;6267338;28;20076;-79
2022/04/14 04:37:48;;;;;;;25.88;14.07;;;;;;;;;;6267513;28;20634;-77
2022/04/14 04:40:50;;;;;;;24.20;13.85;;;;;;;;;;6266225;28;20134;-77
2022/04/14 04:43:52;;;;;;;25.65;14.88;;;;;;;;;;6282209;28;20128;-76
2022/04/14 04:46:53;;;;;;;26.92;14.75;;;;;;;;;;6292952;28;20127;-78
2022/04/14 04:49:55;;;;;;;22.70;13.55;;;;;;;;;;6291473;28;20047;-77
2022/04/14 04:52:57;;;;;;;25.50;13.00;;;;;;;;;;6283705;28;20167;-78
2022/04/14 04:55:58;;;;;;;22.27;12.57;;;;;;;;;;6266265;28;20104;-77
2022/04/14 04:59:00;;;;;;;23.73;12.55;;;;;;;;;;6266235;28;20164;-79
2022/04/14 05:02:02;;;;;;;23.25;13.32;;;;;;;;;;6265886;28;20071;-78
2022/04/14 05:05:04;;;;;;;22.48;13.15;;;;;;;;;;6277145;28;20131;-77
2022/04/14 05:08:07;;;;;;;24.95;13.70;;;;;;;;;;6291359;28;20075;-78
2022/04/14 05:11:09;;;;;;;28.45;15.38;;;;;;;;;;6268091;28;20041;-79
2022/04/14 05:14:10;;;;;;;26.95;14.57;;;;;;;;;;6265968;28;20122;-78
2022/04/14 05:17:12;;;;;;;23.95;13.48;;;;;;;;;;6279190;28;20118;-80
2022/04/14 05:20:14;;;;;;;21.35;12.77;;;;;;;;;;6287453;28;20045;-77
2022/04/14 05:23:15;;;;;;;26.15;14.68;;;;;;;;;;6289898;28;20098;-78
2022/04/14 05:26:17;;;;;;;27.85;15.75;;;;;;;;;;6281935;27;20174;-78
2022/04/14 05:29:19;;;;;;;27.92;13.80;;;;;;;;;;6265766;28;20111;-77
2022/04/14 05:32:21;;;;;;;24.98;13.52;;;;;;;;;;6265282;28;20716;-78
2022/04/14 05:35:27;;;;;;;25.17;14.18;;;;;;;;;;6255453;28;20068;-77
2022/04/14 05:38:28;;;;;;;25.55;14.45;;;;;;;;;;6240674;28;20187;-79
2022/04/14 05:41:30;;;;;;;25.90;13.77;;;;;;;;;;6261144;28;20397;-78
2022/04/14 05:44:32;;;;;;;24.80;14.13;;;;;;;;;;6264795;28;20041;-75
2022/04/14 05:47:33;;;;;;;30.50;14.48;;;;;;;;;;6280118;28;20210;-78
2022/04/14 05:50:35;;;;;;;26.90;14.63;;;;;;;;;;6288041;28;20044;-78
2022/04/14 05:53:36;;;;;;;31.13;15.55;;;;;;;;;;6290216;28;20098;-78
2022/04/14 05:56:38;;;;;;;29.52;15.68;;;;;;;;;;6289422;28;20060;-77
2022/04/14 05:59:40;;;;;;;27.08;15.77;;;;;;;;;;6269157;28;20557;-79
2022/04/14 06:02:42;;;;;;;29.00;15.73;;;;;;;;;;6263915;28;20175;-77
2022/04/14 06:05:44;;;;;;;26.98;15.90;;;;;;;;;;6288362;28;20048;-77
2022/04/14 06:08:46;;;;;;;29.55;16.02;;;;;;;;;;6289736;28;20041;-78
2022/04/14 06:11:48;;;;;;;29.93;15.97;;;;;;;;;;6265300;28;20068;-78
2022/04/14 06:14:50;;;;;;;32.75;17.15;;;;;;;;;;6265097;28;20598;-77
2022/04/14 06:17:52;;;;;;;34.65;17.08;;;;;;;;;;6279312;28;20041;-77
2022/04/14 06:20:54;;;;;;;26.45;15.70;;;;;;;;;;6279149;28;20056;-77
2022/04/14 06:23:56;;;;;;;27.13;15.63;;;;;;;;;;6263976;28;20091;-77
2022/04/14 06:26:57;;;;;;;29.90;16.80;;;;;;;;;;6264984;28;20080;-78
2022/04/14 06:29:59;;;;;;;31.77;15.88;;;;;;;;;;6267215;28;20056;-80
2022/04/14 06:33:03;;;;;;;29.67;15.88;;;;;;;;;;6288721;28;20064;-77
2022/04/14 06:36:05;;;;;;;28.27;16.13;;;;;;;;;;6287892;28;20051;-80
2022/04/14 06:39:12;;;;;;;29.17;16.23;;;;;;;;;;6279331;28;20060;-79
2022/04/14 06:42:13;;;;;;;34.47;15.90;;;;;;;;;;6262819;28;20045;-78
2022/04/14 06:45:16;;;;;;;35.45;16.40;;;;;;;;;;6262334;28;20064;-78
2022/04/14 06:48:18;;;;;;;34.72;16.92;;;;;;;;;;6302821;28;20749;-79
2022/04/14 06:51:20;;;;;;;36.17;17.38;;;;;;;;;;6286882;28;20055;-78
2022/04/14 06:54:21;;;;;;;34.35;16.63;;;;;;;;;;6284862;28;20068;-78
2022/04/14 06:57:23;;;;;;;32.50;17.25;;;;;;;;;;6288931;28;20658;-80
2022/04/14 07:00:25;;;;;;;29.77;16.40;;;;;;;;;;6278557;28;20039;-81
2022/04/14 07:03:27;;;;;;;32.22;17.05;;;;;;;;;;6264106;28;20090;-81
2022/04/14 07:06:28;;;;;;;40.63;18.92;;;;;;;;;;6285162;28;20065;-79
2022/04/14 07:09:32;;;;;;;38.50;18.02;;;;;;;;;;6279497;28;20145;-78
2022/04/14 07:12:35;;;;;;;37.85;18.80;;;;;;;;;;6272764;28;20124;-78
2022/04/14 07:15:36;;;;;;;;;;;;;;;;;;6270730;28;20144;-78
2022/04/14 07:18:38;;;;;;;32.10;16.27;;;;;;;;;;6248935;28;19927;-80
2022/04/14 07:21:40;;;;;;;35.05;16.55;;;;;;;;;;6279712;28;20041;-79
2022/04/14 07:24:42;;;;;;;33.47;18.08;;;;;;;;;;6270276;28;20120;-78
2022/04/14 07:27:44;;;;;;;36.03;16.73;;;;;;;;;;6270564;28;20051;-77
2022/04/14 07:30:45;;;;;;;30.35;15.93;;;;;;;;;;6270786;28;20129;-75
2022/04/14 07:33:47;;;;;;;32.15;16.63;;;;;;;;;;6266201;28;20134;-78
2022/04/14 07:36:48;;;;;;;30.73;14.93;;;;;;;;;;6297324;28;20675;-80
2022/04/14 07:39:50;;;;;;;34.05;16.23;;;;;;;;;;6263597;28;20037;-76
2022/04/14 07:42:55;;;;;;;33.60;15.93;;;;;;;;;;6267376;28;20174;-78
2022/04/14 07:45:57;;;;;;;32.83;15.57;;;;;;;;;;6287220;28;20044;-78
2022/04/14 07:48:59;;;;;;;32.15;16.13;;;;;;;;;;6289254;28;20037;-79
2022/04/14 07:52:00;;;;;;;30.85;15.57;;;;;;;;;;6289174;28;20133;-78
2022/04/14 07:55:02;;;;;;;32.20;15.70;;;;;;;;;;6286285;28;20066;-77
2022/04/14 07:58:07;;;;;;;33.38;15.48;;;;;;;;;;6288935;28;20040;-78
2022/04/14 08:01:09;;;;;;;34.30;16.10;;;;;;;;;;6274246;28;20155;-79
2022/04/14 08:04:11;;;;;;;35.30;17.33;;;;;;;;;;6267059;28;20095;-80
2022/04/14 08:07:13;;;;;;;38.27;17.90;;;;;;;;;;6288428;28;20185;-78
2022/04/14 08:10:19;;;;;;;37.08;16.95;;;;;;;;;;6275867;28;20048;-79
2022/04/14 08:13:21;;;;;;;31.47;16.27;;;;;;;;;;6265525;28;20449;-79
2022/04/14 08:16:22;;;;;;;34.47;17.00;;;;;;;;;;6266900;28;20451;-78
2022/04/14 08:19:24;;;;;;;34.72;17.20;;;;;;;;;;6283102;28;20049;-79
2022/04/14 08:22:26;;;;;;;31.42;15.98;;;;;;;;;;6240388;28;20056;-77
2022/04/14 08:25:30;;;;;;;38.08;17.08;;;;;;;;;;6243162;28;20042;-77
2022/04/14 08:28:33;;;;;;;36.10;16.02;;;;;;;;;;6263004;28;20088;-78
2022/04/14 08:31:38;;;;;;;40.03;17.02;;;;;;;;;;6267181;28;20044;-79
2022/04/14 08:34:41;;;;;;;32.35;16.60;;;;;;;;;;6268131;28;20041;-78
2022/04/14 08:37:44;;;;;;;35.83;16.63;;;;;;;;;;6271094;28;20068;-77
2022/04/14 08:40:47;;;;;;;28.48;14.60;;;;;;;;;;6272291;28;20592;-76
2022/04/14 08:44:13;;;;;;;29.15;12.77;;;;;;;;;;6267799;28;20045;-79
2022/04/14 08:47:18;;;;;;;32.92;14.65;;;;;;;;;;6268585;28;20082;-79
2022/04/14 08:50:20;;;;;;;34.20;15.20;;;;;;;;;;6271942;28;20060;-77
2022/04/14 08:53:26;;;;;;;31.05;15.50;;;;;;;;;;6273361;28;20405;-78
2022/04/14 08:56:29;;;;;;;29.13;15.18;;;;;;;;;;6283080;28;20060;-77
2022/04/14 08:59:31;;;;;;;30.45;15.45;;;;;;;;;;6291182;28;20125;-78
2022/04/14 09:02:34;;;;;;;34.70;16.52;;;;;;;;;;6282296;28;20130;-79
2022/04/14 09:05:37;;;;;;;31.85;15.88;;;;;;;;;;6281991;28;20123;-79
2022/04/14 09:08:38;;;;;;;35.38;15.60;;;;;;;;;;6304850;28;20123;-79
2022/04/14 09:11:41;;;;;;;29.92;14.93;;;;;;;;;;6267387;28;20734;-77
2022/04/14 09:14:43;;;;;;;26.20;14.23;;;;;;;;;;6267299;28;20506;-80
2022/04/14 09:17:45;;;;;;;28.67;14.13;;;;;;;;;;6268029;28;20124;-80
2022/04/14 09:20:48;;;;;;;28.05;14.38;;;;;;;;;;6266932;28;20505;-77
2022/04/14 09:23:52;;;;;;;27.48;13.90;;;;;;;;;;6269669;28;20103;-80
2022/04/14 09:26:53;;;;;;;22.47;12.83;;;;;;;;;;6293994;28;20044;-79
2022/04/14 09:29:57;;;;;;;19.13;11.00;;;;;;;;;;6282251;28;21460;-80
2022/04/14 09:32:58;;;;;;;23.27;10.85;;;;;;;;;;6287316;28;20178;-79
2022/04/14 09:36:15;;;;;;;22.65;12.07;;;;;;;;;;6291097;28;20048;-79
2022/04/14 09:39:17;;;;;;;;;;;;;;;;;;6289645;28;20253;-79
2022/04/14 09:42:28;;;;;;;10.48;6.20;;;;;;;;;;6266842;28;20006;-79
2022/04/14 09:45:30;;;;;;;10.73;5.85;;;;;;;;;;6270150;28;20422;-77
2022/04/14 09:49:14;;;;;;;10.40;5.68;;;;;;;;;;6265948;28;20680;-80
2022/04/14 09:52:15;;;;;;;7.95;5.43;;;;;;;;;;6265186;28;20123;-81
2022/04/14 09:55:17;;;;;;;8.85;5.40;;;;;;;;;;6266538;28;20247;-79
2022/04/14 09:58:20;;;;;;;10.35;5.72;;;;;;;;;;6263738;28;20515;-79
2022/04/14 10:01:22;;;;;;;8.50;5.22;;;;;;;;;;6265613;28;20532;-80
2022/04/14 10:04:34;;;;;;;8.45;5.60;;;;;;;;;;6289984;28;20117;-79
2022/04/14 10:07:56;;;;;;;8.88;5.30;;;;;;;;;;6288348;28;20426;-78
2022/04/14 10:11:06;;;;;;;7.20;4.57;;;;;;;;;;6275583;28;20170;-79
2022/04/14 10:14:10;;;;;;;7.60;4.70;;;;;;;;;;6265953;28;20052;-80
2022/04/14 10:17:13;;;;;;;6.57;4.13;;;;;;;;;;6269400;28;20474;-78
2022/04/14 10:20:14;;;;;;;6.70;4.30;;;;;;;;;;6267707;28;20056;-79
2022/04/14 10:23:16;;;;;;;7.30;4.10;;;;;;;;;;6267884;28;20089;-79
2022/04/14 10:26:20;;;;;;;6.13;4.40;;;;;;;;;;6266871;28;20103;-78
2022/04/14 10:29:22;;;;;;;6.90;4.40;;;;;;;;;;6266786;28;20053;-77
2022/04/14 10:32:25;;;;;;;6.38;3.90;;;;;;;;;;6269122;28;20053;-77
2022/04/14 10:35:30;;;;;;;6.93;4.25;;;;;;;;;;6270634;28;20130;-78
2022/04/14 10:38:35;;;;;;;6.20;3.92;;;;;;;;;;6268557;28;20045;-79
2022/04/14 10:41:44;;;;;;;4.55;3.42;;;;;;;;;;6270146;28;20095;-78
2022/04/14 10:44:51;;;;;;;5.03;3.10;;;;;;;;;;6269527;28;20091;-79
2022/04/14 10:47:55;;;;;;;4.97;2.88;;;;;;;;;;6270727;28;20463;-78
2022/04/14 10:51:19;;;;;;;5.93;4.13;;;;;;;;;;6270371;28;20748;-78
2022/04/14 10:54:20;;;;;;;6.32;3.70;;;;;;;;;;6276000;28;20052;-80
2022/04/14 10:57:38;;;;;;;6.78;3.83;;;;;;;;;;6265016;28;20182;-82
2022/04/14 11:00:40;;;;;;;7.03;3.90;;;;;;;;;;6264674;28;20087;-79
2022/04/14 11:03:47;;;;;;;7.55;3.75;;;;;;;;;;6264245;28;20068;-80
2022/04/14 11:06:51;;;;;;;4.45;3.13;;;;;;;;;;6267705;28;20201;-78
2022/04/14 11:09:58;;;;;;;6.78;4.00;;;;;;;;;;6290569;28;20436;-80
2022/04/14 11:12:59;;;;;;;4.60;3.72;;;;;;;;;;6289190;28;20554;-79
2022/04/14 11:16:40;;;;;;;4.83;3.60;;;;;;;;;;6261322;28;20049;-79
2022/04/14 11:19:42;;;;;;;7.07;4.05;;;;;;;;;;6238467;28;20049;-77
2022/04/14 11:23:06;;;;;;;7.88;3.97;;;;;;;;;;6259726;28;20504;-79
2022/04/14 11:26:09;;;;;;;6.05;4.38;;;;;;;;;;6261379;28;20061;-78
2022/04/14 11:29:11;;;;;;;6.18;4.10;;;;;;;;;;6264529;28;20040;-77
2022/04/14 11:32:15;;;;;;;6.95;4.45;;;;;;;;;;6277034;28;20127;-80
2022/04/14 11:35:45;;;;;;;6.53;3.95;;;;;;;;;;6268689;28;20056;-79
2022/04/14 11:38:55;;;;;;;7.05;4.18;;;;;;;;;;6279447;28;20163;-80
2022/04/14 11:42:07;;;;;;;7.20;4.07;;;;;;;;;;6280883;28;20049;-78
2022/04/14 11:45:09;;;;;;;5.50;3.50;;;;;;;;;;6266936;28;20069;-79
2022/04/14 11:48:15;;;;;;;4.70;3.70;;;;;;;;;;6267620;28;20532;-79
2022/04/14 11:51:17;;;;;;;6.35;4.20;;;;;;;;;;6275115;28;20114;-79
2022/04/14 11:54:33;;;;;;;6.07;3.77;;;;;;;;;;6277334;28;20122;-77
2022/04/14 11:57:46;;;;;;;7.37;3.53;;;;;;;;;;6264538;28;20049;-78
2022/04/14 12:00:49;;;;;;;4.82;3.53;;;;;;;;;;6265095;28;20056;-78
2022/04/14 12:03:51;;;;;;;5.25;4.13;;;;;;;;;;6265588;28;20045;-78
2022/04/14 12:06:55;;;;;;;4.88;3.20;;;;;;;;;;6264244;28;20118;-80
2022/04/14 12:10:04;;;;;;;4.28;3.35;;;;;;;;;;6273953;28;20068;-81
2022/04/14 12:13:07;;;;;;;6.05;3.78;;;;;;;;;;6289898;28;20036;-79
2022/04/14 12:16:11;;;;;;;4.70;3.42;;;;;;;;;;6287337;28;20232;-79
2022/04/14 12:19:13;;;;;;;6.68;3.10;;;;;;;;;;6287583;28;20102;-78
2022/04/14 12:22:14;;;;;;;5.57;3.47;;;;;;;;;;6289494;28;20125;-79
2022/04/14 12:25:16;;;;;;;4.80;3.70;;;;;;;;;;6281267;28;20103;-80
2022/04/14 12:28:18;;;;;;;4.60;3.70;;;;;;;;;;6270279;28;20075;-80
2022/04/14 12:31:20;;;;;;;4.65;3.80;;;;;;;;;;6316481;28;20094;-78
2022/04/14 12:34:22;;;;;;;5.20;3.58;;;;;;;;;;6294193;28;20033;-81
2022/04/14 12:37:41;;;;;;;5.00;3.45;;;;;;;;;;6296244;28;20100;-79
2022/04/14 12:40:56;;;;;;;4.78;3.42;;;;;;;;;;6271070;28;20080;-76
2022/04/14 12:43:57;;;;;;;5.90;4.03;;;;;;;;;;6271933;28;20606;-78
2022/04/14 12:46:59;;;;;;;4.78;4.00;;;;;;;;;;6274854;28;20598;-80
2022/04/14 12:50:02;;;;;;;6.47;3.90;;;;;;;;;;6272211;28;20048;-79
2022/04/14 12:53:04;;;;;;;4.78;3.65;;;;;;;;;;6278304;28;20048;-80
2022/04/14 12:56:13;;;;;;;4.83;3.73;;;;;;;;;;6291947;28;20063;-78
2022/04/14 12:59:16;;;;;;;6.35;4.30;;;;;;;;;;6292234;28;20427;-81
2022/04/14 13:02:21;;;;;;;4.90;4.15;;;;;;;;;;6248420;27;20037;-76
2022/04/14 13:05:27;;;;;;;8.02;4.82;;;;;;;;;;6285341;28;20055;-79
2022/04/14 13:08:31;;;;;;;6.35;4.72;;;;;;;;;;6272059;28;20049;-79
2022/04/14 13:11:43;;;;;;;7.15;3.97;;;;;;;;;;6280458;28;20127;-79
2022/04/14 13:14:47;;;;;;;7.13;4.50;;;;;;;;;;6288316;28;20046;-82
2022/04/14 13:18:05;;;;;;;7.78;5.00;;;;;;;;;;6273370;28;20201;-78
2022/04/14 13:21:08;;;;;;;8.13;4.95;;;;;;;;;;6284054;28;20127;-77
2022/04/14 13:24:10;;;;;;;5.57;4.20;;;;;;;;;;6282816;27;20049;-79
2022/04/14 13:27:12;;;;;;;7.63;4.65;;;;;;;;;;6304055;28;20048;-78
2022/04/14 13:30:13;;;;;;;5.75;4.03;;;;;;;;;;6281527;28;20099;-78
2022/04/14 13:33:15;;;;;;;6.25;4.50;;;;;;;;;;6263312;28;20055;-79
2022/04/14 13:36:17;;;;;;;8.55;4.50;;;;;;;;;;6272537;28;20139;-77
2022/04/14 13:39:19;;;;;;;4.95;4.10;;;;;;;;;;6271466;28;20036;-79
2022/04/14 13:42:21;;;;;;;4.63;4.05;;;;;;;;;;6263474;28;20068;-80
2022/04/14 13:45:23;;;;;;;6.97;4.18;;;;;;;;;;6238941;28;20085;-79
2022/04/14 13:48:25;;;;;;;8.07;5.07;;;;;;;;;;6240294;28;20052;-81
2022/04/14 13:51:26;;;;;;;4.20;3.78;;;;;;;;;;6261383;28;20579;-79
2022/04/14 13:54:28;;;;;;;6.20;3.97;;;;;;;;;;6264333;28;20049;-78
2022/04/14 13:57:30;;;;;;;6.18;4.18;;;;;;;;;;6280392;28;20048;-78
2022/04/14 14:00:32;;;;;;;5.68;4.47;;;;;;;;;;6278106;28;20053;-78
2022/04/14 14:03:34;;;;;;;5.47;4.30;;;;;;;;;;6263049;28;20221;-78
2022/04/14 14:06:36;;;;;;;7.03;4.10;;;;;;;;;;6286681;28;20129;-78
2022/04/14 14:09:38;;;;;;;8.15;4.53;;;;;;;;;;6288220;28;20048;-79
2022/04/14 14:12:40;;;;;;;5.85;4.05;;;;;;;;;;6287154;28;20048;-78
2022/04/14 14:15:42;;;;;;;6.03;4.75;;;;;;;;;;6284135;28;20139;-79
2022/04/14 14:18:45;;;;;;;4.68;3.75;;;;;;;;;;6282040;28;20049;-79
2022/04/14 14:21:48;;;;;;;6.72;3.78;;;;;;;;;;6288519;28;20570;-80
2022/04/14 14:24:51;;;;;;;7.38;3.92;;;;;;;;;;6292463;28;20163;-80
2022/04/14 14:27:53;;;;;;;6.30;3.75;;;;;;;;;;6293126;28;20090;-80
2022/04/14 14:30:55;;;;;;;6.20;4.57;;;;;;;;;;6267335;28;20049;-79
2022/04/14 14:33:56;;;;;;;5.05;4.13;;;;;;;;;;6287773;28;20067;-78
2022/04/14 14:36:58;;;;;;;7.07;4.40;;;;;;;;;;6287618;28;20090;-81
2022/04/14 14:40:00;;;;;;;5.28;4.10;;;;;;;;;;6283628;28;20532;-80
2022/04/14 14:43:02;;;;;;;5.78;4.10;;;;;;;;;;6280705;28;20136;-82
2022/04/14 14:46:07;;;;;;;6.15;4.32;;;;;;;;;;6274071;28;20099;-80
2022/04/14 14:49:09;;;;;;;6.15;4.30;;;;;;;;;;6266515;28;20055;-80
2022/04/14 14:52:11;;;;;;;9.85;5.15;;;;;;;;;;6268032;28;20076;-81
2022/04/14 14:55:13;;;;;;;5.57;3.95;;;;;;;;;;6268244;28;20064;-80
2022/04/14 15:01:35;;;;;;;5.65;4.10;;;;;;;;;;6290199;28;20053;-85
2022/04/14 15:04:37;;;;;;;;;;;;;;;;;;6265834;28;20045;-78
2022/04/14 15:07:39;;;;;;;8.23;4.60;;;;;;;;;;6294606;28;20021;-82
2022/04/14 15:10:40;;;;;;;6.13;4.03;;;;;;;;;;6294063;28;20063;-80
2022/04/14 15:13:42;;;;;;;6.18;4.07;;;;;;;;;;6288550;28;20131;-78
2022/04/14 15:16:44;;;;;;;5.80;4.15;;;;;;;;;;6244340;28;20175;-78
2022/04/14 15:19:45;;;;;;;5.93;3.40;;;;;;;;;;6263548;28;20056;-80
2022/04/14 15:22:47;;;;;;;5.18;3.20;;;;;;;;;;6285212;28;20040;-79
2022/04/14 15:25:49;;;;;;;4.03;3.10;;;;;;;;;;6285606;28;20056;-81
2022/04/14 15:28:52;;;;;;;3.78;3.30;;;;;;;;;;6287959;28;20040;-81
2022/04/14 15:31:53;;;;;;;;;;;;;;;;;;6285503;28;20045;-77
2022/04/14 15:34:55;;;;;;;3.85;3.05;;;;;;;;;;6286044;28;19927;-80
2022/04/14 15:37:57;;;;;;;5.13;3.10;;;;;;;;;;6285380;28;20135;-77
2022/04/14 15:40:58;;;;;;;5.35;3.33;;;;;;;;;;6281159;28;20534;-80
2022/04/14 15:44:00;;;;;;;4.75;3.42;;;;;;;;;;6262313;28;20099;-77
2022/04/14 15:47:02;;;;;;;4.20;2.72;;;;;;;;;;6261911;28;20041;-81
2022/04/14 15:50:04;;;;;;;4.07;2.95;;;;;;;;;;6276863;28;20812;-79
2022/04/14 15:53:06;;;;;;;4.30;3.03;;;;;;;;;;6262820;28;20044;-81
2022/04/14 15:56:08;;;;;;;4.70;3.28;;;;;;;;;;6262152;28;20040;-80
2022/04/14 15:59:10;;;;;;;5.45;3.30;;;;;;;;;;6265148;28;20123;-81
2022/04/14 16:02:14;;;;;;;4.95;3.20;;;;;;;;;;6268926;28;20044;-80
2022/04/14 16:05:16;;;;;;;5.45;2.97;;;;;;;;;;6311113;28;20040;-78
2022/04/14 16:08:19;;;;;;;4.13;3.05;;;;;;;;;;6305973;28;20133;-80
2022/04/14 16:14:41;;;;;;;5.18;3.00;;;;;;;;;;6268290;28;20111;-79
2022/04/14 16:17:43;;;;;;;2.97;2.65;;;;;;;;;;6293002;28;20404;-81
2022/04/14 16:20:45;;;;;;;5.43;2.97;;;;;;;;;;6294294;28;20036;-80
2022/04/14 16:23:50;;;;;;;2.90;2.60;;;;;;;;;;6283074;28;20505;-80
2022/04/14 16:26:52;;;;;;;3.90;2.80;;;;;;;;;;6244599;28;20053;-80
2022/04/14 16:29:54;;;;;;;5.50;3.38;;;;;;;;;;6269528;28;20121;-79
2022/04/14 16:32:56;;;;;;;5.07;3.30;;;;;;;;;;6300301;28;20053;-80
2022/04/14 16:36:00;;;;;;;3.38;3.03;;;;;;;;;;6273473;28;20049;-80
2022/04/14 16:39:03;;;;;;;4.65;3.38;;;;;;;;;;6277058;28;20041;-79
2022/04/14 16:42:05;;;;;;;;;;;;;;;;;;6282250;28;20048;-81
2022/04/14 16:45:07;;;;;;;7.30;4.47;;;;;;;;;;6288944;27;19947;-80
2022/04/14 16:48:09;;;;;;;7.68;4.50;;;;;;;;;;6276427;27;20045;-80
2022/04/14 16:51:11;;;;;;;6.85;4.47;;;;;;;;;;6281267;28;20048;-80
2022/04/14 16:54:19;;;;;;;7.82;4.55;;;;;;;;;;6280104;28;20064;-80
2022/04/14 16:57:21;;;;;;;7.68;4.90;;;;;;;;;;6288118;28;20044;-80
2022/04/14 17:00:22;;;;;;;5.60;4.10;;;;;;;;;;6311824;27;20157;-78
2022/04/14 17:03:24;;;;;;;7.35;4.85;;;;;;;;;;6286343;28;20132;-80
2022/04/14 17:06:26;;;;;;;7.27;4.67;;;;;;;;;;6292031;27;20044;-81
2022/04/14 17:09:28;;;;;;;8.47;5.10;;;;;;;;;;6313575;27;20189;-79
2022/04/14 17:12:30;;;;;;;6.50;5.10;;;;;;;;;;6291211;28;20075;-81
2022/04/14 17:15:32;;;;;;;5.60;4.13;;;;;;;;;;6285189;28;20057;-79
2022/04/14 17:18:34;;;;;;;8.80;4.68;;;;;;;;;;6269466;28;20202;-81
2022/04/14 17:24:56;;;;;;;8.23;5.20;;;;;;;;;;6269303;28;20068;-81
2022/04/14 17:27:58;;;;;;;6.93;5.20;;;;;;;;;;6270460;28;20060;-80
2022/04/14 17:31:00;;;;;;;8.75;5.22;;;;;;;;;;6268078;28;20056;-80
2022/04/14 17:34:04;;;;;;;8.35;5.22;;;;;;;;;;6278849;28;20045;-79
2022/04/14 17:37:06;;;;;;;7.97;5.38;;;;;;;;;;6272191;28;20053;-80
2022/04/14 17:40:16;;;;;;;9.27;5.43;;;;;;;;;;6268323;28;20219;-78
2022/04/14 17:43:19;;;;;;;9.73;5.53;;;;;;;;;;6292199;28;20058;-79
2022/04/14 17:46:24;;;;;;;11.27;6.38;;;;;;;;;;6305271;28;20734;-80
2022/04/14 17:49:28;;;;;;;6.37;5.10;;;;;;;;;;6275141;28;20127;-80
2022/04/14 17:52:31;;;;;;;6.97;5.40;;;;;;;;;;6277880;28;20063;-78
2022/04/14 17:55:34;;;;;;;7.35;5.13;;;;;;;;;;6283804;28;20068;-80
2022/04/14 17:58:35;;;;;;;7.93;5.20;;;;;;;;;;6287521;28;20036;-79
2022/04/14 18:01:37;;;;;;;6.05;4.43;;;;;;;;;;6284842;28;20078;-81
2022/04/14 18:04:42;;;;;;;5.80;4.78;;;;;;;;;;6290475;28;20052;-80
2022/04/14 18:07:44;;;;;;;6.93;5.10;;;;;;;;;;6289122;28;20044;-79
2022/04/14 18:10:45;;;;;;;7.72;5.13;;;;;;;;;;6263857;28;20069;-80
2022/04/14 18:13:47;;;;;;;6.03;4.78;;;;;;;;;;6266986;28;20108;-80